createdAt,value
2023-04-03T00:01:24.059Z,1.66
2023-04-03T00:03:52.773Z,1.74
2023-04-03T00:06:21.351Z,1.68
2023-04-03T00:08:49.962Z,1.73
2023-04-03T00:11:18.664Z,1.75
2023-04-03T00:13:46.907Z,1.76
2023-04-03T00:16:16.874Z,1.77
2023-04-03T00:18:45.240Z,1.81
2023-04-03T00:21:14.782Z,1.73
2023-04-03T00:23:43.362Z,1.73
2023-04-03T00:26:12.053Z,1.62
2023-04-03T00:28:40.647Z,1.42
2023-04-03T00:31:09.006Z,1.43
2023-04-03T00:33:38.985Z,1.48
2023-04-03T00:36:08.085Z,1.46
2023-04-03T00:38:36.461Z,1.54
2023-04-03T00:41:04.943Z,1.41
2023-04-03T00:43:33.313Z,1.31
2023-04-03T00:46:02.036Z,1.24
2023-04-03T00:48:32.032Z,1.19
2023-04-03T00:51:03.116Z,1.27
2023-04-03T00:53:55.305Z,1.23
2023-04-03T00:56:25.741Z,1.27
2023-04-03T00:58:57.204Z,1.28
2023-04-03T01:01:26.826Z,1.33
2023-04-03T01:03:55.430Z,1.24
2023-04-03T01:06:27.178Z,1.43
2023-04-03T01:08:56.173Z,1.50
2023-04-03T01:11:24.435Z,1.41
2023-04-03T01:13:53.330Z,1.41
2023-04-03T01:16:21.793Z,1.37
2023-04-03T01:18:50.184Z,1.43
2023-04-03T01:21:36.898Z,1.38
2023-04-03T01:24:15.026Z,1.31
2023-04-03T01:26:43.606Z,1.31
2023-04-03T01:29:12.309Z,1.41
2023-04-03T01:31:54.993Z,1.53
2023-04-03T01:34:23.662Z,1.57
2023-04-03T01:36:53.238Z,1.51
2023-04-03T01:39:21.912Z,1.55
2023-04-03T01:41:50.298Z,1.46
2023-04-03T01:44:18.620Z,1.47
2023-04-03T01:46:47.338Z,1.44
2023-04-03T01:49:17.145Z,1.46
2023-04-03T01:51:45.472Z,1.42
2023-04-03T01:54:17.282Z,1.35
2023-04-03T01:56:46.877Z,1.33
2023-04-03T01:59:17.947Z,1.30
2023-04-03T02:01:48.446Z,1.28
2023-04-03T02:04:18.975Z,1.23
2023-04-03T02:06:47.519Z,1.21
2023-04-03T02:09:20.216Z,1.15
2023-04-03T02:11:48.577Z,1.09
2023-04-03T02:14:25.108Z,1.17
2023-04-03T02:16:54.120Z,1.20
2023-04-03T02:19:27.500Z,1.21
2023-04-03T02:21:55.834Z,1.10
2023-04-03T02:24:24.129Z,1.10
2023-04-03T02:26:52.331Z,1.05
2023-04-03T02:29:40.817Z,0.98
2023-04-03T02:32:14.617Z,0.99
2023-04-03T02:34:46.722Z,0.91
2023-04-03T02:37:14.904Z,0.83
2023-04-03T02:39:44.915Z,0.73
2023-04-03T02:42:13.147Z,0.69
2023-04-03T02:44:41.449Z,0.67
2023-04-03T02:47:09.853Z,0.65
2023-04-03T02:49:40.708Z,0.63
2023-04-03T02:52:10.761Z,0.57
2023-04-03T02:54:38.989Z,0.56
2023-04-03T02:57:09.730Z,0.59
2023-04-03T02:59:38.062Z,0.58
2023-04-03T03:02:06.645Z,0.57
2023-04-03T03:04:34.877Z,0.57
2023-04-03T03:07:03.615Z,0.54
2023-04-03T03:09:33.325Z,0.53
2023-04-03T03:12:01.636Z,0.56
2023-04-03T03:14:43.868Z,0.51
2023-04-03T03:17:26.452Z,0.52
2023-04-03T03:19:54.779Z,0.48
2023-04-03T03:22:22.984Z,0.40
2023-04-03T03:24:52.636Z,0.36
2023-04-03T03:27:20.839Z,0.33
2023-04-03T03:29:49.122Z,0.22
2023-04-03T03:32:17.725Z,0.24
2023-04-03T03:35:00.187Z,0.24
2023-04-03T03:37:28.735Z,0.16
2023-04-03T03:39:58.304Z,0.19
2023-04-03T03:42:26.676Z,0.15
2023-04-03T03:44:54.920Z,0.12
2023-04-03T03:47:23.234Z,0.08
2023-04-03T03:49:51.586Z,0.02
2023-04-03T03:52:19.791Z,0.02
2023-04-03T03:54:48.192Z,-0.03
2023-04-03T03:57:17.755Z,-0.05
2023-04-03T03:59:46.058Z,-0.15
2023-04-03T04:02:14.338Z,-0.09
2023-04-03T04:04:42.766Z,-0.08
2023-04-03T04:07:10.973Z,-0.10
2023-04-03T04:09:39.191Z,-0.17
2023-04-03T04:12:07.872Z,-0.18
2023-04-03T04:14:37.499Z,-0.11
2023-04-03T04:17:06.005Z,-0.29
2023-04-03T04:19:34.458Z,-0.27
2023-04-03T04:22:02.620Z,-0.32
2023-04-03T04:24:30.836Z,-0.31
2023-04-03T04:26:59.190Z,-0.33
2023-04-03T04:29:27.533Z,-0.35
2023-04-03T04:31:57.118Z,-0.49
2023-04-03T04:34:25.340Z,-0.59
2023-04-03T04:36:53.645Z,-0.70
2023-04-03T04:39:22.170Z,-0.68
2023-04-03T04:41:50.624Z,-0.69
2023-04-03T04:44:20.267Z,-0.64
2023-04-03T04:46:48.883Z,-0.65
2023-04-03T04:49:18.553Z,-0.71
2023-04-03T04:51:52.041Z,-0.84
2023-04-03T04:54:21.293Z,-0.84
2023-04-03T04:56:49.577Z,-0.84
2023-04-03T04:59:18.836Z,-0.78
2023-04-03T05:01:49.979Z,-0.73
2023-04-03T05:04:19.706Z,-0.83
2023-04-03T05:06:48.293Z,-0.84
2023-04-03T05:09:16.967Z,-0.90
2023-04-03T05:11:45.482Z,-0.88
2023-04-03T05:14:13.813Z,-0.90
2023-04-03T05:16:42.046Z,-0.89
2023-04-03T05:19:10.371Z,-0.88
2023-04-03T05:21:39.886Z,-0.76
2023-04-03T05:24:10.398Z,-0.79
2023-04-03T05:26:39.419Z,-0.74
2023-04-03T05:29:07.741Z,-0.84
2023-04-03T05:31:39.315Z,-0.79
2023-04-03T05:34:08.064Z,-0.78
2023-04-03T05:36:36.499Z,-0.72
2023-04-03T05:39:06.736Z,-0.67
2023-04-03T05:41:35.508Z,-0.71
2023-04-03T05:44:03.968Z,-0.59
2023-04-03T05:46:32.333Z,-0.48
2023-04-03T05:49:00.662Z,-0.47
2023-04-03T05:51:31.242Z,-0.47
2023-04-03T05:54:04.603Z,-0.32
2023-04-03T05:56:34.405Z,-0.30
2023-04-03T05:59:02.775Z,-0.28
2023-04-03T06:01:31.005Z,-0.21
2023-04-03T06:04:00.240Z,-0.22
2023-04-03T06:06:44.610Z,-0.22
2023-04-03T06:09:13.204Z,-0.12
2023-04-03T06:11:43.666Z,-0.07
2023-04-03T06:14:12.529Z,-0.02
2023-04-03T06:16:41.206Z,0.03
2023-04-03T06:19:12.696Z,0.13
2023-04-03T06:21:41.194Z,0.19
2023-04-03T06:24:09.791Z,0.17
2023-04-03T06:26:38.263Z,0.25
2023-04-03T06:29:08.110Z,0.31
2023-04-03T06:31:37.352Z,0.37
2023-04-03T06:34:09.234Z,0.43
2023-04-03T06:36:38.123Z,0.48
2023-04-03T06:39:06.688Z,0.60
2023-04-03T06:41:36.033Z,0.63
2023-04-03T06:44:05.883Z,0.71
2023-04-03T06:46:35.650Z,0.75
2023-04-03T06:49:04.449Z,0.85
2023-04-03T06:51:32.752Z,0.87
2023-04-03T06:54:01.731Z,1.15
2023-04-03T06:56:30.225Z,1.13
2023-04-03T06:58:59.167Z,1.09
2023-04-03T07:01:28.569Z,1.13
2023-04-03T07:03:58.448Z,1.28
2023-04-03T07:06:28.409Z,1.28
2023-04-03T07:09:08.779Z,1.45
2023-04-03T07:11:37.249Z,1.51
2023-04-03T07:14:06.481Z,1.61
2023-04-03T07:16:34.798Z,1.65
2023-04-03T07:19:04.972Z,2.07
2023-04-03T07:21:33.224Z,3.34
2023-04-03T07:24:01.668Z,5.26
2023-04-03T07:26:29.893Z,5.27
2023-04-03T07:28:58.144Z,6.53
2023-04-03T07:31:26.551Z,9.24
2023-04-03T07:33:55.076Z,8.77
2023-04-03T07:36:25.369Z,9.63
2023-04-03T07:38:53.557Z,9.55
2023-04-03T07:41:23.584Z,8.51
2023-04-03T07:43:52.951Z,7.91
2023-04-03T07:46:21.661Z,9.05
2023-04-03T07:48:50.288Z,11.24
2023-04-03T07:51:18.492Z,11.29
2023-04-03T07:53:48.173Z,12.15
2023-04-03T07:56:16.398Z,12.54
2023-04-03T07:58:47.687Z,11.96
2023-04-03T08:01:16.055Z,11.71
2023-04-03T08:03:44.734Z,12.59
2023-04-03T08:06:16.447Z,11.70
2023-04-03T08:08:45.381Z,12.93
2023-04-03T08:11:15.568Z,13.75
2023-04-03T08:13:44.224Z,13.95
2023-04-03T08:16:13.602Z,12.98
2023-04-03T08:18:42.008Z,10.50
2023-04-03T08:21:16.710Z,10.55
2023-04-03T08:23:44.898Z,11.31
2023-04-03T08:26:14.301Z,12.57
2023-04-03T08:28:44.352Z,12.60
2023-04-03T08:31:14.578Z,12.43
2023-04-03T08:33:43.112Z,11.97
2023-04-03T08:36:18.759Z,13.92
2023-04-03T08:38:47.181Z,14.48
2023-04-03T08:41:17.669Z,14.81
2023-04-03T08:43:55.432Z,14.37
2023-04-03T08:46:24.850Z,13.79
2023-04-03T08:48:53.562Z,13.91
2023-04-03T08:51:22.536Z,14.66
2023-04-03T08:53:57.970Z,15.65
2023-04-03T08:56:26.625Z,15.36
2023-04-03T08:58:57.941Z,16.05
2023-04-03T09:01:28.454Z,16.32
2023-04-03T09:03:56.818Z,16.78
2023-04-03T09:06:29.544Z,13.40
2023-04-03T09:09:06.916Z,15.37
2023-04-03T09:11:42.377Z,13.26
2023-04-03T09:14:16.462Z,13.15
2023-04-03T09:16:50.116Z,13.11
2023-04-03T09:19:24.365Z,12.48
2023-04-03T09:21:52.955Z,12.86
2023-04-03T09:24:24.040Z,13.49
2023-04-03T09:26:55.715Z,12.64
2023-04-03T09:29:26.302Z,13.13
2023-04-03T09:31:58.206Z,11.70
2023-04-03T09:34:28.302Z,13.02
2023-04-03T09:36:57.858Z,12.11
2023-04-03T09:39:28.075Z,12.19
2023-04-03T09:41:57.925Z,12.59
2023-04-03T09:44:28.253Z,12.60
2023-04-03T09:46:56.847Z,12.73
2023-04-03T09:49:25.765Z,13.82
2023-04-03T09:51:54.820Z,13.14
2023-04-03T09:54:27.394Z,14.19
2023-04-03T09:56:56.594Z,13.82
2023-04-03T09:59:25.755Z,12.95
2023-04-03T10:02:02.542Z,12.13
2023-04-03T10:04:39.452Z,12.46
2023-04-03T10:07:30.411Z,12.21
2023-04-03T10:09:59.477Z,12.91
2023-04-03T10:12:27.744Z,13.54
2023-04-03T10:14:57.274Z,15.57
2023-04-03T10:17:35.691Z,15.67
2023-04-03T10:20:09.398Z,13.74
2023-04-03T10:22:42.882Z,13.68
2023-04-03T10:25:16.696Z,13.45
2023-04-03T10:27:49.367Z,12.76
2023-04-03T10:30:24.257Z,12.63
2023-04-03T10:32:59.995Z,12.80
2023-04-03T10:35:37.897Z,12.27
2023-04-03T10:38:11.517Z,13.37
2023-04-03T10:40:44.309Z,11.89
2023-04-03T10:43:17.441Z,13.65
2023-04-03T10:45:53.619Z,14.73
2023-04-03T10:48:30.913Z,16.20
2023-04-03T10:51:02.703Z,15.87
2023-04-03T10:53:33.864Z,15.13
2023-04-03T10:56:05.359Z,14.94
2023-04-03T10:58:35.032Z,13.62
2023-04-03T11:01:04.889Z,14.07
2023-04-03T11:03:37.460Z,13.44
2023-04-03T11:06:09.835Z,13.51
2023-04-03T11:08:40.501Z,13.54
2023-04-03T11:11:11.762Z,13.22
2023-04-03T11:13:42.163Z,12.79
2023-04-03T11:16:10.622Z,14.19
2023-04-03T11:18:43.389Z,14.40
2023-04-03T11:21:14.752Z,13.38
2023-04-03T11:23:49.412Z,13.99
2023-04-03T11:26:19.805Z,13.73
2023-04-03T11:28:48.464Z,13.59
2023-04-03T11:31:26.363Z,14.48
2023-04-03T11:34:02.152Z,14.27
2023-04-03T11:36:33.095Z,14.43
2023-04-03T11:39:09.655Z,14.41
2023-04-03T11:41:38.157Z,16.15
2023-04-03T11:44:31.713Z,17.11
2023-04-03T11:47:00.502Z,15.53
2023-04-03T11:49:47.603Z,15.52
2023-04-03T11:52:37.233Z,15.60
2023-04-03T11:55:31.132Z,15.51
2023-04-03T11:58:06.473Z,15.91
2023-04-03T12:00:54.159Z,15.42
2023-04-03T12:03:32.807Z,16.28
2023-04-03T12:06:17.569Z,17.05
2023-04-03T12:08:48.285Z,15.72
2023-04-03T12:11:17.580Z,15.52
2023-04-03T12:14:00.643Z,14.93
2023-04-03T12:16:30.400Z,15.63
2023-04-03T12:19:00.997Z,17.09
2023-04-03T12:21:58.444Z,16.13
2023-04-03T12:24:29.634Z,15.50
2023-04-03T12:27:05.415Z,14.51
2023-04-03T12:29:36.566Z,14.19
2023-04-03T12:32:11.700Z,13.41
2023-04-03T12:34:46.369Z,13.95
2023-04-03T12:37:23.585Z,14.47
2023-04-03T12:40:04.839Z,14.92
2023-04-03T12:42:37.336Z,14.37
2023-04-03T12:45:11.947Z,15.68
2023-04-03T12:47:44.102Z,14.61
2023-04-03T12:50:20.547Z,14.41
2023-04-03T12:52:53.160Z,14.41
2023-04-03T12:55:22.844Z,15.27
2023-04-03T12:57:51.239Z,17.43
2023-04-03T13:00:31.514Z,16.96
2023-04-03T13:03:00.151Z,15.83
2023-04-03T13:05:29.113Z,14.83
2023-04-03T13:07:59.954Z,13.91
2023-04-03T13:10:29.767Z,15.63
2023-04-03T13:12:59.265Z,18.13
2023-04-03T13:15:28.109Z,17.42
2023-04-03T13:17:56.580Z,17.10
2023-04-03T13:20:26.608Z,18.15
2023-04-03T13:23:01.014Z,17.71
2023-04-03T13:25:32.344Z,17.40
2023-04-03T13:28:12.548Z,15.96
2023-04-03T13:30:55.957Z,14.71
2023-04-03T13:33:26.028Z,14.24
2023-04-03T13:35:57.790Z,14.80
2023-04-03T13:38:28.514Z,16.52
2023-04-03T13:41:01.413Z,17.54
2023-04-03T13:43:30.575Z,17.22
2023-04-03T13:46:01.118Z,15.86
2023-04-03T13:48:36.573Z,15.62
2023-04-03T13:51:06.088Z,14.43
2023-04-03T13:53:35.461Z,13.38
2023-04-03T13:56:12.270Z,13.30
2023-04-03T13:58:41.171Z,13.64
2023-04-03T14:01:11.415Z,13.33
2023-04-03T14:03:43.439Z,13.48
2023-04-03T14:06:13.295Z,13.37
2023-04-03T14:08:43.838Z,15.14
2023-04-03T14:11:17.988Z,13.01
2023-04-03T14:13:47.002Z,13.43
2023-04-03T14:16:17.863Z,13.26
2023-04-03T14:18:46.705Z,13.47
2023-04-03T14:21:15.839Z,14.57
2023-04-03T14:23:44.327Z,12.94
2023-04-03T14:26:14.715Z,12.19
2023-04-03T14:28:45.362Z,13.14
2023-04-03T14:31:14.682Z,12.41
2023-04-03T14:33:43.325Z,12.86
2023-04-03T14:36:16.327Z,14.25
2023-04-03T14:38:44.809Z,13.44
2023-04-03T14:41:16.403Z,13.87
2023-04-03T14:43:46.968Z,13.07
2023-04-03T14:46:16.868Z,13.67
2023-04-03T14:48:45.905Z,13.97
2023-04-03T14:51:14.881Z,13.83
2023-04-03T14:53:44.476Z,12.71
2023-04-03T14:56:14.085Z,12.12
2023-04-03T14:58:43.295Z,11.19
2023-04-03T15:01:15.120Z,10.31
2023-04-03T15:03:43.702Z,10.55
2023-04-03T15:06:13.620Z,10.30
2023-04-03T15:08:43.359Z,10.11
2023-04-03T15:11:11.801Z,10.25
2023-04-03T15:13:40.276Z,10.51
2023-04-03T15:16:15.856Z,10.29
2023-04-03T15:18:44.889Z,9.48
2023-04-03T15:21:30.535Z,8.95
2023-04-03T15:24:00.464Z,9.15
2023-04-03T15:26:42.475Z,9.00
2023-04-03T15:29:11.270Z,8.80
2023-04-03T15:31:40.819Z,8.66
2023-04-03T15:34:09.072Z,8.77
2023-04-03T15:36:37.319Z,8.54
2023-04-03T15:39:05.736Z,8.28
2023-04-03T15:41:34.150Z,8.59
2023-04-03T15:44:02.394Z,8.82
2023-04-03T15:46:30.725Z,8.86
2023-04-03T15:49:00.479Z,8.80
2023-04-03T15:51:28.844Z,8.47
2023-04-03T15:53:57.051Z,8.62
2023-04-03T15:56:25.258Z,8.01
2023-04-03T15:58:53.464Z,7.86
2023-04-03T16:01:21.786Z,7.88
2023-04-03T16:03:50.457Z,7.99
2023-04-03T16:06:20.915Z,8.11
2023-04-03T16:08:49.868Z,8.02
2023-04-03T16:11:18.196Z,8.09
2023-04-03T16:13:46.583Z,7.85
2023-04-03T16:16:15.106Z,7.72
2023-04-03T16:18:43.302Z,7.51
2023-04-03T16:21:11.649Z,7.43
2023-04-03T16:23:41.344Z,7.30
2023-04-03T16:26:09.888Z,7.28
2023-04-03T16:28:38.129Z,7.21
2023-04-03T16:31:07.113Z,7.16
2023-04-03T16:33:36.085Z,7.00
2023-04-03T16:36:04.922Z,6.95
2023-04-03T16:38:33.220Z,6.86
2023-04-03T16:41:05.412Z,6.85
2023-04-03T16:43:33.983Z,6.82
2023-04-03T16:46:03.402Z,6.87
2023-04-03T16:48:32.198Z,6.83
2023-04-03T16:51:00.533Z,6.80
2023-04-03T16:53:29.382Z,6.68
2023-04-03T16:55:59.165Z,6.67
2023-04-03T16:58:28.752Z,6.64
2023-04-03T17:00:57.046Z,6.59
2023-04-03T17:03:26.863Z,6.72
2023-04-03T17:05:56.339Z,6.55
2023-04-03T17:08:24.780Z,6.64
2023-04-03T17:10:54.829Z,6.45
2023-04-03T17:13:23.213Z,6.35
2023-04-03T17:15:53.110Z,6.42
2023-04-03T17:18:21.340Z,6.28
2023-04-03T17:20:49.680Z,6.17
2023-04-03T17:23:17.903Z,6.13
2023-04-03T17:25:46.144Z,6.04
2023-04-03T17:28:14.325Z,6.00
2023-04-03T17:30:42.857Z,5.90
2023-04-03T17:33:12.543Z,6.11
2023-04-03T17:35:40.974Z,6.03
2023-04-03T17:38:09.485Z,5.90
2023-04-03T17:40:37.917Z,5.77
2023-04-03T17:43:07.113Z,5.74
2023-04-03T17:45:35.664Z,5.57
2023-04-03T17:48:03.967Z,5.61
2023-04-03T17:50:33.696Z,5.54
2023-04-03T17:53:01.871Z,5.49
2023-04-03T17:55:30.083Z,5.41
2023-04-03T17:57:58.396Z,5.40
2023-04-03T18:00:26.735Z,5.21
2023-04-03T18:02:55.032Z,5.36
2023-04-03T18:05:23.326Z,5.25
2023-04-03T18:07:53.898Z,5.22
2023-04-03T18:10:22.402Z,5.00
2023-04-03T18:12:50.720Z,4.91
2023-04-03T18:15:19.041Z,4.91
2023-04-03T18:17:49.951Z,4.83
2023-04-03T18:20:18.532Z,4.71
2023-04-03T18:22:46.958Z,4.68
2023-04-03T18:25:17.269Z,4.66
2023-04-03T18:27:46.833Z,4.66
2023-04-03T18:30:16.478Z,4.57
2023-04-03T18:32:44.818Z,4.46
2023-04-03T18:35:13.526Z,4.34
2023-04-03T18:37:42.511Z,4.30
2023-04-03T18:40:11.582Z,4.15
2023-04-03T18:42:42.148Z,4.10
2023-04-03T18:45:11.879Z,4.07
2023-04-03T18:47:40.677Z,4.05
2023-04-03T18:50:09.913Z,3.96
2023-04-03T18:52:39.624Z,3.90
2023-04-03T18:55:08.606Z,3.81
2023-04-03T18:57:36.968Z,3.81
2023-04-03T19:00:08.489Z,3.69
2023-04-03T19:02:37.369Z,3.78
2023-04-03T19:05:06.193Z,3.73
2023-04-03T19:07:35.228Z,3.72
2023-04-03T19:10:03.691Z,3.72
2023-04-03T19:12:31.984Z,3.65
2023-04-03T19:15:00.400Z,3.52
2023-04-03T19:17:30.036Z,3.54
2023-04-03T19:19:59.607Z,3.49
2023-04-03T19:22:31.511Z,3.47
2023-04-03T19:24:59.724Z,3.36
2023-04-03T19:27:28.102Z,3.29
2023-04-03T19:29:56.488Z,3.23
2023-04-03T19:32:24.937Z,3.20
2023-04-03T19:34:54.756Z,3.22
2023-04-03T19:37:24.946Z,3.17
2023-04-03T19:39:53.258Z,3.06
2023-04-03T19:42:22.074Z,2.97
2023-04-03T19:44:50.690Z,3.02
2023-04-03T19:47:22.065Z,2.98
2023-04-03T19:49:50.622Z,3.00
2023-04-03T19:52:20.674Z,3.01
2023-04-03T19:54:51.025Z,3.04
2023-04-03T19:57:20.401Z,2.95
2023-04-03T19:59:48.891Z,2.87
2023-04-03T20:02:18.776Z,2.94
2023-04-03T20:04:47.783Z,2.77
2023-04-03T20:07:22.366Z,2.68
2023-04-03T20:09:50.746Z,2.68
2023-04-03T20:12:19.240Z,2.60
2023-04-03T20:14:47.855Z,2.60
2023-04-03T20:17:16.594Z,2.48
2023-04-03T20:19:45.813Z,2.44
2023-04-03T20:22:14.261Z,2.45
2023-04-03T20:24:44.123Z,2.34
2023-04-03T20:27:12.317Z,2.39
2023-04-03T20:29:41.153Z,2.29
2023-04-03T20:32:11.848Z,2.35
2023-04-03T20:34:40.535Z,2.26
2023-04-03T20:37:09.570Z,2.19
2023-04-03T20:39:37.911Z,2.30
2023-04-03T20:42:09.636Z,2.13
2023-04-03T20:44:38.193Z,2.03
2023-04-03T20:47:06.680Z,2.08
2023-04-03T20:49:35.868Z,2.09
2023-04-03T20:52:04.452Z,1.96
2023-04-03T20:54:33.769Z,1.92
2023-04-03T20:57:02.364Z,1.87
2023-04-03T20:59:34.107Z,1.79
2023-04-03T21:02:02.590Z,1.75
2023-04-03T21:04:33.074Z,1.72
2023-04-03T21:07:20.211Z,1.63
2023-04-03T21:10:07.153Z,1.62
2023-04-03T21:12:54.231Z,1.60
2023-04-03T21:15:45.160Z,1.53
2023-04-03T21:18:34.215Z,1.65
2023-04-03T21:21:04.576Z,1.65
2023-04-03T21:23:34.159Z,1.54
2023-04-03T21:26:03.058Z,1.51
2023-04-03T21:28:31.679Z,1.55
2023-04-03T21:30:59.885Z,1.62
2023-04-03T21:33:28.292Z,1.56
2023-04-03T21:35:59.783Z,1.64
2023-04-03T21:38:29.929Z,1.60
2023-04-03T21:40:58.689Z,1.53
2023-04-03T21:43:27.231Z,1.43
2023-04-03T21:45:56.511Z,1.34
2023-04-03T21:48:25.365Z,1.40
2023-04-03T21:50:54.183Z,1.40
2023-04-03T21:53:22.976Z,1.27
2023-04-03T21:55:55.573Z,1.11
2023-04-03T21:58:28.148Z,1.06
2023-04-03T22:00:56.557Z,0.92
2023-04-03T22:03:25.436Z,1.06
2023-04-03T22:05:53.731Z,0.90
2023-04-03T22:08:21.884Z,0.84
2023-04-03T22:10:50.388Z,0.79
2023-04-03T22:13:19.939Z,0.70
2023-04-03T22:15:48.422Z,0.66
2023-04-03T22:18:16.684Z,0.61
2023-04-03T22:20:44.855Z,0.68
2023-04-03T22:23:13.027Z,0.63
2023-04-03T22:25:41.510Z,0.65
2023-04-03T22:28:09.890Z,0.65
2023-04-03T22:30:41.850Z,0.66
2023-04-03T22:33:10.697Z,0.66
2023-04-03T22:35:46.047Z,0.58
2023-04-03T22:38:15.372Z,0.67
2023-04-03T22:40:44.770Z,0.79
2023-04-03T22:43:13.260Z,0.63
2023-04-03T22:45:50.128Z,0.52
2023-04-03T22:48:18.494Z,0.50
2023-04-03T22:50:46.893Z,0.48
2023-04-03T22:53:15.473Z,0.36
2023-04-03T22:55:43.812Z,0.27
2023-04-03T22:58:12.005Z,0.23
2023-04-03T23:00:40.634Z,0.17
2023-04-03T23:03:12.925Z,0.24
2023-04-03T23:05:41.262Z,0.26
2023-04-03T23:08:09.868Z,0.24
2023-04-03T23:10:38.412Z,0.15
2023-04-03T23:13:06.786Z,0.11
2023-04-03T23:15:35.071Z,0.09
2023-04-03T23:18:03.702Z,0.07
2023-04-03T23:20:33.443Z,0.15
2023-04-03T23:23:01.652Z,0.18
2023-04-03T23:25:30.046Z,0.11
2023-04-03T23:27:58.430Z,0.16
2023-04-03T23:30:27.007Z,0.07
2023-04-03T23:32:55.423Z,0.11
2023-04-03T23:35:23.724Z,0.10
2023-04-03T23:37:53.427Z,0.07
2023-04-03T23:40:21.725Z,0.00
2023-04-03T23:42:50.208Z,-0.13
2023-04-03T23:45:18.873Z,-0.14
2023-04-03T23:47:47.180Z,-0.16
2023-04-03T23:50:15.544Z,-0.29
2023-04-03T23:52:43.720Z,-0.35
2023-04-03T23:55:13.506Z,-0.40
2023-04-03T23:57:42.360Z,-0.50
